sensor_id;sensor_type;location;lat;lon;timestamp;temperature;humidity
74420;DHT22;62855;50.718;-2.460;2022-09-17T00:02:00;47.12;65.00
74420;DHT22;62855;50.718;-2.460;2022-09-17T00:05:00;47.12;65.00
74420;DHT22;62855;50.718;-2.460;2022-09-17T00:08:00;47.12;65.00
74420;DHT22;62855;50.718;-2.460;2022-09-17T00:11:05;47.12;65.00
74420;DHT22;62855;50.718;-2.460;2022-09-17T00:14:02;47.12;65.00
74420;DHT22;62855;50.718;-2.460;2022-09-17T00:17:00;47.12;65.00
74420;DHT22;62855;50.718;-2.460;2022-09-17T00:20:01;47.30;65.00
74420;DHT22;62855;50.718;-2.460;2022-09-17T00:23:00;47.30;65.00
74420;DHT22;62855;50.718;-2.460;2022-09-17T00:26:03;47.30;65.00
74420;DHT22;62855;50.718;-2.460;2022-09-17T00:29:00;47.12;65.00
74420;DHT22;62855;50.718;-2.460;2022-09-17T00:32:00;46.94;65.00
74420;DHT22;62855;50.718;-2.460;2022-09-17T00:35:00;46.94;65.00
74420;DHT22;62855;50.718;-2.460;2022-09-17T00:38:00;46.76;66.00
74420;DHT22;62855;50.718;-2.460;2022-09-17T00:41:02;46.76;66.00
74420;DHT22;62855;50.718;-2.460;2022-09-17T00:47:01;46.76;66.00
74420;DHT22;62855;50.718;-2.460;2022-09-17T00:50:05;46.58;66.00
74420;DHT22;62855;50.718;-2.460;2022-09-17T00:53:04;46.58;66.00
74420;DHT22;62855;50.718;-2.460;2022-09-17T00:56:03;46.58;66.00
74420;DHT22;62855;50.718;-2.460;2022-09-17T00:59:01;46.40;66.00
74420;DHT22;62855;50.718;-2.460;2022-09-17T01:02:00;46.40;66.00
74420;DHT22;62855;50.718;-2.460;2022-09-17T01:05:00;46.40;67.00
74420;DHT22;62855;50.718;-2.460;2022-09-17T01:08:06;46.22;67.00
74420;DHT22;62855;50.718;-2.460;2022-09-17T01:11:14;46.22;67.00
74420;DHT22;62855;50.718;-2.460;2022-09-17T01:14:13;46.22;67.00
74420;DHT22;62855;50.718;-2.460;2022-09-17T01:17:14;46.04;67.00
74420;DHT22;62855;50.718;-2.460;2022-09-17T01:20:17;46.04;67.00
74420;DHT22;62855;50.718;-2.460;2022-09-17T01:23:18;45.86;67.00
74420;DHT22;62855;50.718;-2.460;2022-09-17T01:26:15;45.86;68.00
74420;DHT22;62855;50.718;-2.460;2022-09-17T01:29:11;45.68;68.00
74420;DHT22;62855;50.718;-2.460;2022-09-17T01:32:06;45.68;68.00
74420;DHT22;62855;50.718;-2.460;2022-09-17T01:35:02;45.50;69.00
74420;DHT22;62855;50.718;-2.460;2022-09-17T01:38:05;45.50;69.00
74420;DHT22;62855;50.718;-2.460;2022-09-17T01:41:03;45.50;70.00
74420;DHT22;62855;50.718;-2.460;2022-09-17T01:44:05;45.32;70.00
74420;DHT22;62855;50.718;-2.460;2022-09-17T01:47:05;45.32;70.00
74420;DHT22;62855;50.718;-2.460;2022-09-17T01:50:04;45.32;70.00
74420;DHT22;62855;50.718;-2.460;2022-09-17T01:53:02;45.32;70.00
74420;DHT22;62855;50.718;-2.460;2022-09-17T01:56:02;45.32;70.00
74420;DHT22;62855;50.718;-2.460;2022-09-17T01:59:05;45.32;70.00
74420;DHT22;62855;50.718;-2.460;2022-09-17T02:02:06;45.32;70.00
74420;DHT22;62855;50.718;-2.460;2022-09-17T02:06:03;45.14;70.00
74420;DHT22;62855;50.718;-2.460;2022-09-17T02:09:03;45.14;70.00
74420;DHT22;62855;50.718;-2.460;2022-09-17T02:12:03;44.96;70.00
74420;DHT22;62855;50.718;-2.460;2022-09-17T02:15:02;44.96;70.00
74420;DHT22;62855;50.718;-2.460;2022-09-17T02:18:05;44.96;70.00
74420;DHT22;62855;50.718;-2.460;2022-09-17T02:21:05;44.96;70.00
74420;DHT22;62855;50.718;-2.460;2022-09-17T02:24:06;44.96;70.00
74420;DHT22;62855;50.718;-2.460;2022-09-17T02:27:04;44.78;70.00
74420;DHT22;62855;50.718;-2.460;2022-09-17T02:30:01;44.78;70.00
74420;DHT22;62855;50.718;-2.460;2022-09-17T02:33:02;44.78;70.00
74420;DHT22;62855;50.718;-2.460;2022-09-17T02:36:00;44.78;71.00
74420;DHT22;62855;50.718;-2.460;2022-09-17T02:39:03;44.96;71.00
74420;DHT22;62855;50.718;-2.460;2022-09-17T02:42:07;44.96;71.00
74420;DHT22;62855;50.718;-2.460;2022-09-17T02:45:06;44.96;71.00
74420;DHT22;62855;50.718;-2.460;2022-09-17T02:48:10;44.96;71.00
74420;DHT22;62855;50.718;-2.460;2022-09-17T02:51:19;44.96;71.00
74420;DHT22;62855;50.718;-2.460;2022-09-17T02:54:07;44.96;71.00
74420;DHT22;62855;50.718;-2.460;2022-09-17T02:57:06;44.96;71.00
74420;DHT22;62855;50.718;-2.460;2022-09-17T03:00:05;44.96;71.00
74420;DHT22;62855;50.718;-2.460;2022-09-17T03:03:04;44.96;71.00
74420;DHT22;62855;50.718;-2.460;2022-09-17T03:06:01;44.96;71.00
74420;DHT22;62855;50.718;-2.460;2022-09-17T03:09:01;45.14;71.00
74420;DHT22;62855;50.718;-2.460;2022-09-17T03:12:01;45.14;71.00
74420;DHT22;62855;50.718;-2.460;2022-09-17T03:15:01;44.96;71.00
74420;DHT22;62855;50.718;-2.460;2022-09-17T03:18:01;44.96;71.00
74420;DHT22;62855;50.718;-2.460;2022-09-17T03:21:01;44.78;71.00
74420;DHT22;62855;50.718;-2.460;2022-09-17T03:24:01;44.78;71.00
74420;DHT22;62855;50.718;-2.460;2022-09-17T03:27:01;44.78;71.00
74420;DHT22;62855;50.718;-2.460;2022-09-17T03:30:01;44.78;71.00
74420;DHT22;62855;50.718;-2.460;2022-09-17T03:33:00;44.78;71.00
74420;DHT22;62855;50.718;-2.460;2022-09-17T03:36:00;44.78;71.00
74420;DHT22;62855;50.718;-2.460;2022-09-17T03:39:00;44.78;71.00
74420;DHT22;62855;50.718;-2.460;2022-09-17T03:42:00;44.78;71.00
74420;DHT22;62855;50.718;-2.460;2022-09-17T03:45:00;44.78;71.00
74420;DHT22;62855;50.718;-2.460;2022-09-17T03:48:00;44.96;71.00
74420;DHT22;62855;50.718;-2.460;2022-09-17T03:51:00;44.78;71.00
74420;DHT22;62855;50.718;-2.460;2022-09-17T03:54:00;44.78;71.00
74420;DHT22;62855;50.718;-2.460;2022-09-17T03:57:00;44.60;71.00
74420;DHT22;62855;50.718;-2.460;2022-09-17T04:00:00;44.60;71.00
74420;DHT22;62855;50.718;-2.460;2022-09-17T04:03:00;44.60;71.00
74420;DHT22;62855;50.718;-2.460;2022-09-17T04:06:00;44.60;71.00
74420;DHT22;62855;50.718;-2.460;2022-09-17T04:09:00;44.42;71.00
74420;DHT22;62855;50.718;-2.460;2022-09-17T04:12:01;44.42;72.00
74420;DHT22;62855;50.718;-2.460;2022-09-17T04:15:01;44.42;72.00
74420;DHT22;62855;50.718;-2.460;2022-09-17T04:18:01;44.24;78.00
74420;DHT22;62855;50.718;-2.460;2022-09-17T04:21:01;44.24;78.00
74420;DHT22;62855;50.718;-2.460;2022-09-17T04:24:01;44.06;78.00
74420;DHT22;62855;50.718;-2.460;2022-09-17T04:27:01;44.06;78.00
74420;DHT22;62855;50.718;-2.460;2022-09-17T04:30:00;44.06;78.00
74420;DHT22;62855;50.718;-2.460;2022-09-17T04:33:00;43.88;79.00
74420;DHT22;62855;50.718;-2.460;2022-09-17T04:36:01;43.88;79.00
74420;DHT22;62855;50.718;-2.460;2022-09-17T04:39:01;43.88;79.00
74420;DHT22;62855;50.718;-2.460;2022-09-17T04:42:01;43.88;80.00
74420;DHT22;62855;50.718;-2.460;2022-09-17T04:45:00;43.88;80.00
74420;DHT22;62855;50.718;-2.460;2022-09-17T04:48:01;43.88;80.00
74420;DHT22;62855;50.718;-2.460;2022-09-17T04:51:00;43.88;80.00
74420;DHT22;62855;50.718;-2.460;2022-09-17T04:54:01;43.88;80.00
74420;DHT22;62855;50.718;-2.460;2022-09-17T04:57:00;43.88;80.00
74420;DHT22;62855;50.718;-2.460;2022-09-17T05:00:01;43.70;80.00
74420;DHT22;62855;50.718;-2.460;2022-09-17T05:03:00;43.70;80.00
74420;DHT22;62855;50.718;-2.460;2022-09-17T05:06:01;43.88;80.00
74420;DHT22;62855;50.718;-2.460;2022-09-17T05:09:01;43.88;80.00
74420;DHT22;62855;50.718;-2.460;2022-09-17T05:12:01;43.88;80.00
74420;DHT22;62855;50.718;-2.460;2022-09-17T05:15:00;43.88;80.00
74420;DHT22;62855;50.718;-2.460;2022-09-17T05:18:00;43.88;80.00
74420;DHT22;62855;50.718;-2.460;2022-09-17T05:21:01;43.88;81.00
74420;DHT22;62855;50.718;-2.460;2022-09-17T05:24:01;43.88;81.00
74420;DHT22;62855;50.718;-2.460;2022-09-17T05:27:00;43.88;81.00
74420;DHT22;62855;50.718;-2.460;2022-09-17T05:30:01;43.88;81.00
74420;DHT22;62855;50.718;-2.460;2022-09-17T05:33:02;43.70;81.00
74420;DHT22;62855;50.718;-2.460;2022-09-17T05:36:01;43.70;81.00
74420;DHT22;62855;50.718;-2.460;2022-09-17T05:39:01;43.70;81.00
74420;DHT22;62855;50.718;-2.460;2022-09-17T05:42:01;43.70;81.00
74420;DHT22;62855;50.718;-2.460;2022-09-17T05:45:01;43.88;81.00
74420;DHT22;62855;50.718;-2.460;2022-09-17T05:48:01;43.70;81.00
74420;DHT22;62855;50.718;-2.460;2022-09-17T05:51:00;43.70;81.00
74420;DHT22;62855;50.718;-2.460;2022-09-17T05:54:00;43.70;81.00
74420;DHT22;62855;50.718;-2.460;2022-09-17T05:57:00;43.88;81.00
74420;DHT22;62855;50.718;-2.460;2022-09-17T06:00:01;43.88;81.00
74420;DHT22;62855;50.718;-2.460;2022-09-17T06:03:00;43.70;81.00
74420;DHT22;62855;50.718;-2.460;2022-09-17T06:06:01;43.70;81.00
74420;DHT22;62855;50.718;-2.460;2022-09-17T06:09:01;43.70;81.00
74420;DHT22;62855;50.718;-2.460;2022-09-17T06:12:01;43.70;81.00
74420;DHT22;62855;50.718;-2.460;2022-09-17T06:15:00;43.16;81.00
74420;DHT22;62855;50.718;-2.460;2022-09-17T06:18:00;43.16;82.00
74420;DHT22;62855;50.718;-2.460;2022-09-17T06:21:01;43.34;82.00
74420;DHT22;62855;50.718;-2.460;2022-09-17T06:24:00;43.34;82.00
74420;DHT22;62855;50.718;-2.460;2022-09-17T06:27:00;43.52;82.00
74420;DHT22;62855;50.718;-2.460;2022-09-17T06:30:01;43.70;82.00
74420;DHT22;62855;50.718;-2.460;2022-09-17T06:33:00;44.06;82.00
74420;DHT22;62855;50.718;-2.460;2022-09-17T06:36:02;44.24;82.00
74420;DHT22;62855;50.718;-2.460;2022-09-17T06:39:01;44.42;82.00
74420;DHT22;62855;50.718;-2.460;2022-09-17T06:42:00;44.60;82.00
74420;DHT22;62855;50.718;-2.460;2022-09-17T06:45:00;44.96;77.00
74420;DHT22;62855;50.718;-2.460;2022-09-17T06:48:03;45.14;77.00
74420;DHT22;62855;50.718;-2.460;2022-09-17T06:51:02;45.50;77.00
74420;DHT22;62855;50.718;-2.460;2022-09-17T06:54:01;45.86;78.00
74420;DHT22;62855;50.718;-2.460;2022-09-17T06:57:01;46.04;77.00
74420;DHT22;62855;50.718;-2.460;2022-09-17T07:00:01;46.40;77.00
74420;DHT22;62855;50.718;-2.460;2022-09-17T07:03:00;46.76;77.00
74420;DHT22;62855;50.718;-2.460;2022-09-17T07:06:01;47.12;77.00
74420;DHT22;62855;50.718;-2.460;2022-09-17T07:09:01;47.48;77.00
74420;DHT22;62855;50.718;-2.460;2022-09-17T07:12:01;47.84;77.00
74420;DHT22;62855;50.718;-2.460;2022-09-17T07:15:01;48.38;77.00
74420;DHT22;62855;50.718;-2.460;2022-09-17T07:18:07;48.92;76.00
74420;DHT22;62855;50.718;-2.460;2022-09-17T07:21:03;49.46;76.00
74420;DHT22;62855;50.718;-2.460;2022-09-17T07:24:01;49.64;76.00
74420;DHT22;62855;50.718;-2.460;2022-09-17T07:27:01;50.00;75.00
74420;DHT22;62855;50.718;-2.460;2022-09-17T07:30:01;50.36;75.00
74420;DHT22;62855;50.718;-2.460;2022-09-17T07:33:01;50.72;75.00
74420;DHT22;62855;50.718;-2.460;2022-09-17T07:36:04;50.90;75.00
74420;DHT22;62855;50.718;-2.460;2022-09-17T07:39:00;51.44;75.00
74420;DHT22;62855;50.718;-2.460;2022-09-17T07:42:00;51.98;74.00
74420;DHT22;62855;50.718;-2.460;2022-09-17T07:45:00;52.34;74.00
74420;DHT22;62855;50.718;-2.460;2022-09-17T07:48:00;52.70;74.00
74420;DHT22;62855;50.718;-2.460;2022-09-17T07:51:00;53.06;74.00
74420;DHT22;62855;50.718;-2.460;2022-09-17T07:54:00;53.60;73.00
74420;DHT22;62855;50.718;-2.460;2022-09-17T07:57:00;54.14;73.00
74420;DHT22;62855;50.718;-2.460;2022-09-17T08:00:00;54.68;72.00
74420;DHT22;62855;50.718;-2.460;2022-09-17T08:03:00;54.86;72.00
74420;DHT22;62855;50.718;-2.460;2022-09-17T08:06:02;55.22;72.00
74420;DHT22;62855;50.718;-2.460;2022-09-17T08:09:00;55.58;70.00
74420;DHT22;62855;50.718;-2.460;2022-09-17T08:12:01;55.94;69.00
74420;DHT22;62855;50.718;-2.460;2022-09-17T08:15:00;56.48;68.00
74420;DHT22;62855;50.718;-2.460;2022-09-17T08:18:00;56.66;67.00
74420;DHT22;62855;50.718;-2.460;2022-09-17T08:21:02;56.84;66.00
74420;DHT22;62855;50.718;-2.460;2022-09-17T08:24:00;57.20;66.00
74420;DHT22;62855;50.718;-2.460;2022-09-17T08:27:00;57.56;66.00
74420;DHT22;62855;50.718;-2.460;2022-09-17T08:30:00;58.10;65.00
74420;DHT22;62855;50.718;-2.460;2022-09-17T08:33:00;58.46;64.00
74420;DHT22;62855;50.718;-2.460;2022-09-17T08:36:00;58.82;64.00
74420;DHT22;62855;50.718;-2.460;2022-09-17T08:39:01;58.10;63.00
74420;DHT22;62855;50.718;-2.460;2022-09-17T08:42:05;57.38;62.00
74420;DHT22;62855;50.718;-2.460;2022-09-17T08:45:02;56.66;62.00
74420;DHT22;62855;50.718;-2.460;2022-09-17T08:48:02;56.84;61.00
74420;DHT22;62855;50.718;-2.460;2022-09-17T08:51:01;57.02;61.00
74420;DHT22;62855;50.718;-2.460;2022-09-17T08:54:06;57.20;60.00
74420;DHT22;62855;50.718;-2.460;2022-09-17T08:57:10;57.38;60.00
74420;DHT22;62855;50.718;-2.460;2022-09-17T09:00:03;57.56;60.00
74420;DHT22;62855;50.718;-2.460;2022-09-17T09:09:04;58.10;57.00
74420;DHT22;62855;50.718;-2.460;2022-09-17T09:14:07;0.00;55.00
74420;DHT22;62855;50.718;-2.460;2022-09-17T09:17:04;57.92;55.00
74420;DHT22;62855;50.718;-2.460;2022-09-17T09:20:00;58.10;55.00
74420;DHT22;62855;50.718;-2.460;2022-09-17T09:23:06;58.28;56.00
74420;DHT22;62855;50.718;-2.460;2022-09-17T09:26:07;58.46;55.00
74420;DHT22;62855;50.718;-2.460;2022-09-17T09:29:06;58.64;54.00
74420;DHT22;62855;50.718;-2.460;2022-09-17T09:32:11;58.64;53.00
74420;DHT22;62855;50.718;-2.460;2022-09-17T09:35:11;58.64;54.00
74420;DHT22;62855;50.718;-2.460;2022-09-17T09:38:10;59.00;55.00
74420;DHT22;62855;50.718;-2.460;2022-09-17T09:41:07;59.36;55.00
74420;DHT22;62855;50.718;-2.460;2022-09-17T09:44:02;59.54;54.00
74420;DHT22;62855;50.718;-2.460;2022-09-17T09:47:10;59.36;53.00
74420;DHT22;62855;50.718;-2.460;2022-09-17T09:50:11;59.72;54.00
74420;DHT22;62855;50.718;-2.460;2022-09-17T09:53:08;59.72;54.00
74420;DHT22;62855;50.718;-2.460;2022-09-17T09:56:09;59.90;53.00
74420;DHT22;62855;50.718;-2.460;2022-09-17T09:59:00;59.54;52.00
74420;DHT22;62855;50.718;-2.460;2022-09-17T10:02:01;59.54;52.00
74420;DHT22;62855;50.718;-2.460;2022-09-17T10:05:07;59.36;52.00
74420;DHT22;62855;50.718;-2.460;2022-09-17T10:08:10;59.54;52.00
74420;DHT22;62855;50.718;-2.460;2022-09-17T10:11:02;59.72;51.00
74420;DHT22;62855;50.718;-2.460;2022-09-17T10:14:14;59.72;50.00
74420;DHT22;62855;50.718;-2.460;2022-09-17T10:17:20;59.72;51.00
74420;DHT22;62855;50.718;-2.460;2022-09-17T10:20:13;60.08;52.00
74420;DHT22;62855;50.718;-2.460;2022-09-17T10:23:04;60.26;51.00
74420;DHT22;62855;50.718;-2.460;2022-09-17T10:26:01;60.62;50.00
74420;DHT22;62855;50.718;-2.460;2022-09-17T10:29:02;60.80;51.00
74420;DHT22;62855;50.718;-2.460;2022-09-17T10:32:01;60.80;51.00
74420;DHT22;62855;50.718;-2.460;2022-09-17T10:35:03;61.16;50.00
74420;DHT22;62855;50.718;-2.460;2022-09-17T10:38:01;61.34;50.00
74420;DHT22;62855;50.718;-2.460;2022-09-17T10:41:14;61.52;50.00
74420;DHT22;62855;50.718;-2.460;2022-09-17T10:44:16;61.88;50.00
74420;DHT22;62855;50.718;-2.460;2022-09-17T10:47:04;61.88;50.00
74420;DHT22;62855;50.718;-2.460;2022-09-17T10:50:03;61.70;48.00
74420;DHT22;62855;50.718;-2.460;2022-09-17T10:53:02;61.52;46.00
74420;DHT22;62855;50.718;-2.460;2022-09-17T10:56:08;61.52;48.00
74420;DHT22;62855;50.718;-2.460;2022-09-17T10:59:12;61.52;48.00
74420;DHT22;62855;50.718;-2.460;2022-09-17T11:02:15;61.70;49.00
74420;DHT22;62855;50.718;-2.460;2022-09-17T11:05:05;61.88;48.00
74420;DHT22;62855;50.718;-2.460;2022-09-17T11:08:07;61.88;47.00
74420;DHT22;62855;50.718;-2.460;2022-09-17T11:11:04;61.88;46.00
74420;DHT22;62855;50.718;-2.460;2022-09-17T11:14:09;61.88;45.00
74420;DHT22;62855;50.718;-2.460;2022-09-17T11:17:20;61.88;45.00
74420;DHT22;62855;50.718;-2.460;2022-09-17T11:20:04;61.70;46.00
74420;DHT22;62855;50.718;-2.460;2022-09-17T11:23:12;61.52;48.00
74420;DHT22;62855;50.718;-2.460;2022-09-17T11:26:05;61.16;49.00
74420;DHT22;62855;50.718;-2.460;2022-09-17T11:29:11;61.16;50.00
74420;DHT22;62855;50.718;-2.460;2022-09-17T11:32:08;61.34;50.00
74420;DHT22;62855;50.718;-2.460;2022-09-17T11:35:03;61.70;50.00
74420;DHT22;62855;50.718;-2.460;2022-09-17T11:38:04;62.06;50.00
74420;DHT22;62855;50.718;-2.460;2022-09-17T11:41:03;62.24;50.00
74420;DHT22;62855;50.718;-2.460;2022-09-17T11:44:06;62.42;44.00
74420;DHT22;62855;50.718;-2.460;2022-09-17T11:47:06;62.78;44.00
74420;DHT22;62855;50.718;-2.460;2022-09-17T11:50:03;62.60;43.00
74420;DHT22;62855;50.718;-2.460;2022-09-17T11:53:05;62.42;43.00
74420;DHT22;62855;50.718;-2.460;2022-09-17T11:56:02;62.42;43.00
74420;DHT22;62855;50.718;-2.460;2022-09-17T11:59:03;62.60;43.00
74420;DHT22;62855;50.718;-2.460;2022-09-17T12:02:04;62.78;42.00
74420;DHT22;62855;50.718;-2.460;2022-09-17T12:05:02;62.42;43.00
74420;DHT22;62855;50.718;-2.460;2022-09-17T12:08:05;62.42;43.00
74420;DHT22;62855;50.718;-2.460;2022-09-17T12:11:07;62.42;43.00
74420;DHT22;62855;50.718;-2.460;2022-09-17T12:14:04;62.60;43.00
74420;DHT22;62855;50.718;-2.460;2022-09-17T12:17:01;62.78;43.00
74420;DHT22;62855;50.718;-2.460;2022-09-17T12:20:05;62.96;42.00
74420;DHT22;62855;50.718;-2.460;2022-09-17T12:23:02;63.14;42.00
74420;DHT22;62855;50.718;-2.460;2022-09-17T12:26:07;63.32;43.00
74420;DHT22;62855;50.718;-2.460;2022-09-17T12:29:07;63.50;43.00
74420;DHT22;62855;50.718;-2.460;2022-09-17T12:32:08;63.50;42.00
74420;DHT22;62855;50.718;-2.460;2022-09-17T12:35:05;63.14;42.00
74420;DHT22;62855;50.718;-2.460;2022-09-17T12:38:12;63.14;43.00
74420;DHT22;62855;50.718;-2.460;2022-09-17T12:41:04;63.32;44.00
74420;DHT22;62855;50.718;-2.460;2022-09-17T12:44:15;63.68;43.00
74420;DHT22;62855;50.718;-2.460;2022-09-17T12:47:12;63.68;42.00
74420;DHT22;62855;50.718;-2.460;2022-09-17T12:50:09;63.86;42.00
74420;DHT22;62855;50.718;-2.460;2022-09-17T12:53:12;64.04;42.00
74420;DHT22;62855;50.718;-2.460;2022-09-17T12:56:05;64.22;42.00
74420;DHT22;62855;50.718;-2.460;2022-09-17T12:59:06;64.22;42.00
74420;DHT22;62855;50.718;-2.460;2022-09-17T13:02:02;64.22;41.00
74420;DHT22;62855;50.718;-2.460;2022-09-17T13:05:19;64.04;41.00
74420;DHT22;62855;50.718;-2.460;2022-09-17T13:08:23;64.22;41.00
74420;DHT22;62855;50.718;-2.460;2022-09-17T13:11:13;64.22;41.00
74420;DHT22;62855;50.718;-2.460;2022-09-17T13:14:04;64.22;41.00
74420;DHT22;62855;50.718;-2.460;2022-09-17T13:17:06;64.04;41.00
74420;DHT22;62855;50.718;-2.460;2022-09-17T13:20:04;63.86;40.00
74420;DHT22;62855;50.718;-2.460;2022-09-17T13:23:00;63.86;40.00
74420;DHT22;62855;50.718;-2.460;2022-09-17T13:26:01;63.86;41.00
74420;DHT22;62855;50.718;-2.460;2022-09-17T13:29:02;63.86;41.00
74420;DHT22;62855;50.718;-2.460;2022-09-17T13:32:01;63.86;42.00
74420;DHT22;62855;50.718;-2.460;2022-09-17T13:38:00;63.86;42.00
74420;DHT22;62855;50.718;-2.460;2022-09-17T13:41:19;63.68;42.00
74420;DHT22;62855;50.718;-2.460;2022-09-17T13:44:01;63.50;42.00
74420;DHT22;62855;50.718;-2.460;2022-09-17T13:47:09;63.32;41.00
74420;DHT22;62855;50.718;-2.460;2022-09-17T13:50:02;63.32;41.00
74420;DHT22;62855;50.718;-2.460;2022-09-17T13:53:06;63.50;42.00
74420;DHT22;62855;50.718;-2.460;2022-09-17T13:59:04;63.50;42.00
74420;DHT22;62855;50.718;-2.460;2022-09-17T14:02:26;63.50;43.00
74420;DHT22;62855;50.718;-2.460;2022-09-17T14:05:28;63.50;42.00
74420;DHT22;62855;50.718;-2.460;2022-09-17T14:08:22;63.50;43.00
74420;DHT22;62855;50.718;-2.460;2022-09-17T14:17:00;63.32;42.00
74420;DHT22;62855;50.718;-2.460;2022-09-17T14:20:00;63.50;42.00
74420;DHT22;62855;50.718;-2.460;2022-09-17T14:23:01;63.50;43.00
74420;DHT22;62855;50.718;-2.460;2022-09-17T14:26:05;63.68;43.00
74420;DHT22;62855;50.718;-2.460;2022-09-17T14:29:04;63.86;43.00
74420;DHT22;62855;50.718;-2.460;2022-09-17T14:32:00;64.04;43.00
74420;DHT22;62855;50.718;-2.460;2022-09-17T14:35:11;64.22;42.00
74420;DHT22;62855;50.718;-2.460;2022-09-17T14:38:08;64.22;42.00
74420;DHT22;62855;50.718;-2.460;2022-09-17T14:41:04;64.40;42.00
74420;DHT22;62855;50.718;-2.460;2022-09-17T14:44:03;64.40;42.00
74420;DHT22;62855;50.718;-2.460;2022-09-17T14:47:02;64.22;41.00
74420;DHT22;62855;50.718;-2.460;2022-09-17T14:50:21;64.40;42.00
74420;DHT22;62855;50.718;-2.460;2022-09-17T14:53:06;64.22;41.00
74420;DHT22;62855;50.718;-2.460;2022-09-17T14:56:00;64.04;41.00
74420;DHT22;62855;50.718;-2.460;2022-09-17T14:59:01;64.04;41.00
74420;DHT22;62855;50.718;-2.460;2022-09-17T15:02:00;64.04;41.00
74420;DHT22;62855;50.718;-2.460;2022-09-17T15:05:01;63.86;42.00
74420;DHT22;62855;50.718;-2.460;2022-09-17T15:08:06;63.86;41.00
74420;DHT22;62855;50.718;-2.460;2022-09-17T15:11:02;63.86;42.00
74420;DHT22;62855;50.718;-2.460;2022-09-17T15:14:04;63.86;42.00
74420;DHT22;62855;50.718;-2.460;2022-09-17T15:17:02;63.86;42.00
74420;DHT22;62855;50.718;-2.460;2022-09-17T15:20:02;63.68;42.00
74420;DHT22;62855;50.718;-2.460;2022-09-17T15:23:06;63.68;43.00
74420;DHT22;62855;50.718;-2.460;2022-09-17T15:26:01;63.68;42.00
74420;DHT22;62855;50.718;-2.460;2022-09-17T15:29:01;63.50;42.00
74420;DHT22;62855;50.718;-2.460;2022-09-17T15:32:02;63.32;42.00
74420;DHT22;62855;50.718;-2.460;2022-09-17T15:35:16;62.96;42.00
74420;DHT22;62855;50.718;-2.460;2022-09-17T15:38:02;62.96;43.00
74420;DHT22;62855;50.718;-2.460;2022-09-17T15:41:23;62.78;43.00
74420;DHT22;62855;50.718;-2.460;2022-09-17T15:44:14;62.78;43.00
74420;DHT22;62855;50.718;-2.460;2022-09-17T15:47:33;62.60;43.00
74420;DHT22;62855;50.718;-2.460;2022-09-17T15:50:12;62.78;44.00
74420;DHT22;62855;50.718;-2.460;2022-09-17T15:53:13;62.78;45.00
74420;DHT22;62855;50.718;-2.460;2022-09-17T15:56:03;62.78;45.00
74420;DHT22;62855;50.718;-2.460;2022-09-17T15:59:03;62.78;46.00
74420;DHT22;62855;50.718;-2.460;2022-09-17T16:02:01;62.78;45.00
74420;DHT22;62855;50.718;-2.460;2022-09-17T16:08:19;62.78;45.00
74420;DHT22;62855;50.718;-2.460;2022-09-17T16:11:00;62.96;45.00
74420;DHT22;62855;50.718;-2.460;2022-09-17T16:14:00;63.14;46.00
74420;DHT22;62855;50.718;-2.460;2022-09-17T16:17:08;63.14;46.00
74420;DHT22;62855;50.718;-2.460;2022-09-17T16:20:07;63.14;45.00
74420;DHT22;62855;50.718;-2.460;2022-09-17T16:23:00;63.14;45.00
74420;DHT22;62855;50.718;-2.460;2022-09-17T16:26:00;62.96;45.00
74420;DHT22;62855;50.718;-2.460;2022-09-17T16:29:02;62.96;46.00
74420;DHT22;62855;50.718;-2.460;2022-09-17T16:32:01;62.96;45.00
74420;DHT22;62855;50.718;-2.460;2022-09-17T16:35:00;62.78;45.00
74420;DHT22;62855;50.718;-2.460;2022-09-17T16:38:01;62.60;46.00
74420;DHT22;62855;50.718;-2.460;2022-09-17T16:41:03;62.60;46.00
74420;DHT22;62855;50.718;-2.460;2022-09-17T16:44:01;62.42;46.00
74420;DHT22;62855;50.718;-2.460;2022-09-17T16:47:01;62.24;50.00
74420;DHT22;62855;50.718;-2.460;2022-09-17T16:50:01;62.06;50.00
74420;DHT22;62855;50.718;-2.460;2022-09-17T16:53:00;61.70;50.00
74420;DHT22;62855;50.718;-2.460;2022-09-17T16:56:04;61.52;50.00
74420;DHT22;62855;50.718;-2.460;2022-09-17T16:59:00;61.34;51.00
74420;DHT22;62855;50.718;-2.460;2022-09-17T17:02:01;60.98;51.00
74420;DHT22;62855;50.718;-2.460;2022-09-17T17:05:00;60.98;51.00
74420;DHT22;62855;50.718;-2.460;2022-09-17T17:08:01;60.80;52.00
74420;DHT22;62855;50.718;-2.460;2022-09-17T17:11:01;60.62;52.00
74420;DHT22;62855;50.718;-2.460;2022-09-17T17:14:01;60.62;53.00
74420;DHT22;62855;50.718;-2.460;2022-09-17T17:17:00;60.44;53.00
74420;DHT22;62855;50.718;-2.460;2022-09-17T17:20:01;60.44;53.00
74420;DHT22;62855;50.718;-2.460;2022-09-17T17:23:00;60.26;54.00
74420;DHT22;62855;50.718;-2.460;2022-09-17T17:26:00;60.08;54.00
74420;DHT22;62855;50.718;-2.460;2022-09-17T17:29:00;59.90;54.00
74420;DHT22;62855;50.718;-2.460;2022-09-17T17:32:01;59.72;54.00
74420;DHT22;62855;50.718;-2.460;2022-09-17T17:35:00;59.54;55.00
74420;DHT22;62855;50.718;-2.460;2022-09-17T17:38:00;59.36;55.00
74420;DHT22;62855;50.718;-2.460;2022-09-17T17:41:03;59.18;55.00
74420;DHT22;62855;50.718;-2.460;2022-09-17T17:44:01;59.00;56.00
74420;DHT22;62855;50.718;-2.460;2022-09-17T17:47:01;58.82;56.00
74420;DHT22;62855;50.718;-2.460;2022-09-17T17:50:01;58.82;57.00
74420;DHT22;62855;50.718;-2.460;2022-09-17T17:53:01;58.64;57.00
74420;DHT22;62855;50.718;-2.460;2022-09-17T17:56:02;58.46;57.00
74420;DHT22;62855;50.718;-2.460;2022-09-17T17:59:01;58.28;58.00
74420;DHT22;62855;50.718;-2.460;2022-09-17T18:02:00;58.10;58.00
74420;DHT22;62855;50.718;-2.460;2022-09-17T18:05:00;57.92;59.00
74420;DHT22;62855;50.718;-2.460;2022-09-17T18:08:01;57.74;59.00
74420;DHT22;62855;50.718;-2.460;2022-09-17T18:11:00;57.56;60.00
74420;DHT22;62855;50.718;-2.460;2022-09-17T18:14:01;57.38;60.00
74420;DHT22;62855;50.718;-2.460;2022-09-17T18:17:01;57.38;60.00
74420;DHT22;62855;50.718;-2.460;2022-09-17T18:20:01;57.20;60.00
74420;DHT22;62855;50.718;-2.460;2022-09-17T18:23:01;57.02;60.00
74420;DHT22;62855;50.718;-2.460;2022-09-17T18:26:02;56.84;60.00
74420;DHT22;62855;50.718;-2.460;2022-09-17T18:29:01;56.66;61.00
74420;DHT22;62855;50.718;-2.460;2022-09-17T18:32:01;56.66;61.00
74420;DHT22;62855;50.718;-2.460;2022-09-17T18:35:00;56.48;61.00
74420;DHT22;62855;50.718;-2.460;2022-09-17T18:38:02;56.30;61.00
74420;DHT22;62855;50.718;-2.460;2022-09-17T18:41:02;56.30;61.00
74420;DHT22;62855;50.718;-2.460;2022-09-17T18:44:01;56.12;61.00
74420;DHT22;62855;50.718;-2.460;2022-09-17T18:47:01;55.94;61.00
74420;DHT22;62855;50.718;-2.460;2022-09-17T18:50:01;55.94;62.00
74420;DHT22;62855;50.718;-2.460;2022-09-17T18:53:00;55.94;62.00
74420;DHT22;62855;50.718;-2.460;2022-09-17T18:56:03;55.76;62.00
74420;DHT22;62855;50.718;-2.460;2022-09-17T18:59:00;55.58;62.00
74420;DHT22;62855;50.718;-2.460;2022-09-17T19:02:00;55.58;62.00
74420;DHT22;62855;50.718;-2.460;2022-09-17T19:05:00;55.40;62.00